Time;durP1;ratioP1;P1;durP2;ratioP2;P2;SDS_P1;SDS_P2;PMS_P1;PMS_P2;Temp;Humidity;BMP_temperature;BMP_pressure;BME280_temperature;BME280_humidity;BME280_pressure;Samples;Min_cycle;Max_cycle;Signal;HPM_P1;HPM_P2
2022/07/11 00:01:30;;;;;;;18.33;7.28;;;;;;;;;;5077756;28;20074;-67
2022/07/11 00:03:56;;;;;;;14.90;7.70;;;;;;;;;;5079949;28;20086;-67
2022/07/11 00:06:21;;;;;;;20.90;7.85;;;;;;;;;;5081600;28;20072;-67
2022/07/11 00:08:46;;;;;;;16.67;7.28;;;;;;;;;;5077377;28;20082;-67
2022/07/11 00:11:12;;;;;;;15.60;7.30;;;;;;;;;;5092225;28;20059;-67
2022/07/11 00:13:37;;;;;;;17.05;6.82;;;;;;;;;;5079838;28;20035;-67
2022/07/11 00:16:03;;;;;;;14.95;7.22;;;;;;;;;;5081776;28;20024;-67
2022/07/11 00:18:28;;;;;;;13.73;7.03;;;;;;;;;;5080960;28;20106;-67
2022/07/11 00:20:53;;;;;;;16.85;7.47;;;;;;;;;;5088226;28;20391;-67
2022/07/11 00:23:18;;;;;;;13.55;6.90;;;;;;;;;;5087954;28;20107;-67
2022/07/11 00:25:44;;;;;;;15.73;7.35;;;;;;;;;;5075467;28;20021;-67
2022/07/11 00:28:09;;;;;;;13.93;7.07;;;;;;;;;;5090270;28;20020;-67
2022/07/11 00:30:34;;;;;;;17.33;6.93;;;;;;;;;;5077702;28;20164;-67
2022/07/11 00:32:59;;;;;;;20.20;7.30;;;;;;;;;;5089981;28;20461;-67
2022/07/11 00:35:25;;;;;;;17.98;6.88;;;;;;;;;;5084539;28;20502;-67
2022/07/11 00:37:50;;;;;;;14.23;7.30;;;;;;;;;;5086191;28;20503;-67
2022/07/11 00:40:15;;;;;;;14.85;7.47;;;;;;;;;;5087221;28;20072;-67
2022/07/11 00:42:40;;;;;;;14.63;8.05;;;;;;;;;;5086882;28;20151;-67
2022/07/11 00:45:06;;;;;;;20.15;9.43;;;;;;;;;;5079107;28;20028;-67
2022/07/11 00:47:31;;;;;;;20.45;9.32;;;;;;;;;;5082769;28;20027;-67
2022/07/11 00:49:56;;;;;;;17.88;9.35;;;;;;;;;;5080387;28;20043;-67
2022/07/11 00:52:22;;;;;;;26.45;10.38;;;;;;;;;;5082179;28;20039;-67
2022/07/11 00:54:48;;;;;;;19.58;10.60;;;;;;;;;;5074019;28;20032;-67
2022/07/11 00:57:13;;;;;;;21.42;10.57;;;;;;;;;;5082548;28;20055;-67
2022/07/11 00:59:39;;;;;;;21.80;10.80;;;;;;;;;;5087142;28;20024;-67
2022/07/11 01:02:04;;;;;;;26.98;11.70;;;;;;;;;;5080774;28;20050;-67
2022/07/11 01:04:29;;;;;;;24.10;11.47;;;;;;;;;;5082213;28;20032;-67
2022/07/11 01:06:55;;;;;;;21.30;11.27;;;;;;;;;;5084496;28;20035;-67
2022/07/11 01:09:20;;;;;;;27.77;12.43;;;;;;;;;;5083696;28;20448;-67
2022/07/11 01:11:45;;;;;;;22.97;12.07;;;;;;;;;;5083715;28;20105;-67
2022/07/11 01:14:10;;;;;;;21.45;12.13;;;;;;;;;;5086294;28;20036;-67
2022/07/11 01:16:36;;;;;;;25.10;11.32;;;;;;;;;;5079757;28;20029;-67
2022/07/11 01:19:01;;;;;;;19.60;11.05;;;;;;;;;;5083982;28;20031;-67
2022/07/11 01:21:30;;;;;;;25.38;11.48;;;;;;;;;;5079719;28;20082;-67
2022/07/11 01:23:57;;;;;;;23.05;10.98;;;;;;;;;;5075178;28;20033;-67
2022/07/11 01:26:22;;;;;;;24.95;11.77;;;;;;;;;;5077709;28;20109;-67
2022/07/11 01:28:48;;;;;;;24.20;11.57;;;;;;;;;;5082998;28;20581;-67
2022/07/11 01:31:13;;;;;;;21.70;11.68;;;;;;;;;;5078135;28;20024;-68
2022/07/11 01:33:39;;;;;;;30.47;12.63;;;;;;;;;;5082308;28;20377;-68
2022/07/11 01:36:04;;;;;;;24.95;12.65;;;;;;;;;;5085166;28;20016;-68
2022/07/11 01:38:30;;;;;;;26.50;13.47;;;;;;;;;;5078720;28;20085;-67
2022/07/11 01:40:55;;;;;;;26.07;13.20;;;;;;;;;;5085018;28;20040;-67
2022/07/11 01:43:21;;;;;;;22.08;12.50;;;;;;;;;;5073520;28;20021;-67
2022/07/11 01:45:46;;;;;;;29.17;13.30;;;;;;;;;;5086402;28;20361;-67
2022/07/11 01:48:11;;;;;;;30.90;14.50;;;;;;;;;;5080122;28;20083;-68
2022/07/11 01:50:36;;;;;;;25.73;13.88;;;;;;;;;;5076634;28;20487;-67
2022/07/11 01:53:02;;;;;;;30.60;14.07;;;;;;;;;;5090793;28;20028;-67
2022/07/11 01:55:27;;;;;;;27.00;14.07;;;;;;;;;;5085606;28;20115;-67
2022/07/11 01:57:52;;;;;;;22.40;12.05;;;;;;;;;;5076029;28;20508;-67
2022/07/11 02:00:18;;;;;;;25.53;12.43;;;;;;;;;;5080640;28;20024;-67
2022/07/11 02:02:43;;;;;;;21.30;11.77;;;;;;;;;;5081647;28;20424;-67
2022/07/11 02:05:08;;;;;;;27.10;12.47;;;;;;;;;;5077030;28;20705;-67
2022/07/11 02:10:17;;;;;;;24.03;11.63;;;;;;;;;;5077221;28;20286;-67
2022/07/11 02:12:42;;;;;;;26.30;12.63;;;;;;;;;;5079256;28;20036;-67
2022/07/11 02:15:08;;;;;;;24.07;12.13;;;;;;;;;;5079853;28;20028;-67
2022/07/11 02:17:33;;;;;;;24.42;11.88;;;;;;;;;;5080803;28;20032;-68
2022/07/11 02:19:58;;;;;;;23.13;11.97;;;;;;;;;;5083814;28;20032;-68
2022/07/11 02:22:24;;;;;;;25.67;11.27;;;;;;;;;;5081269;28;20114;-67
2022/07/11 02:24:49;;;;;;;26.10;11.60;;;;;;;;;;5084011;28;20055;-67
2022/07/11 02:27:14;;;;;;;29.80;12.40;;;;;;;;;;5076251;28;20028;-67
2022/07/11 02:29:40;;;;;;;28.92;12.20;;;;;;;;;;5074748;28;20031;-67
2022/07/11 02:32:05;;;;;;;29.57;12.93;;;;;;;;;;5086432;28;20031;-67
2022/07/11 02:34:30;;;;;;;27.67;12.57;;;;;;;;;;5082383;28;20024;-68
2022/07/11 02:36:56;;;;;;;32.70;13.57;;;;;;;;;;5090381;28;20027;-68
2022/07/11 02:39:21;;;;;;;33.93;13.83;;;;;;;;;;5084894;28;20020;-68
2022/07/11 02:41:46;;;;;;;29.90;13.93;;;;;;;;;;5080762;28;20058;-67
2022/07/11 02:44:11;;;;;;;32.80;14.70;;;;;;;;;;5081968;28;20027;-67
2022/07/11 02:46:37;;;;;;;28.20;13.70;;;;;;;;;;5078972;28;20110;-67
2022/07/11 02:49:02;;;;;;;29.03;13.90;;;;;;;;;;5079319;28;20421;-67
2022/07/11 02:51:27;;;;;;;25.80;13.43;;;;;;;;;;5078078;28;20500;-68
2022/07/11 02:53:52;;;;;;;20.42;11.57;;;;;;;;;;5080687;28;20032;-67
2022/07/11 02:56:18;;;;;;;22.63;11.38;;;;;;;;;;5079402;28;20024;-68
2022/07/11 02:58:43;;;;;;;19.83;11.02;;;;;;;;;;5085889;28;20040;-68
2022/07/11 03:01:08;;;;;;;23.27;10.93;;;;;;;;;;5074864;28;20028;-67
2022/07/11 03:03:33;;;;;;;21.03;11.00;;;;;;;;;;5080473;28;20111;-67
2022/07/11 03:05:59;;;;;;;21.53;10.37;;;;;;;;;;5074236;28;20103;-68
2022/07/11 03:08:24;;;;;;;21.80;10.43;;;;;;;;;;5088011;28;20024;-67
2022/07/11 03:10:49;;;;;;;18.60;9.33;;;;;;;;;;5078792;28;20100;-67
2022/07/11 03:13:15;;;;;;;17.77;9.02;;;;;;;;;;5080436;28;20103;-67
2022/07/11 03:15:40;;;;;;;21.00;9.73;;;;;;;;;;5077551;28;20460;-67
2022/07/11 03:18:05;;;;;;;16.73;8.90;;;;;;;;;;5085539;28;20050;-67
2022/07/11 03:20:31;;;;;;;14.93;8.30;;;;;;;;;;5083744;28;20488;-67
2022/07/11 03:22:56;;;;;;;15.60;8.20;;;;;;;;;;5076001;28;20107;-68
2022/07/11 03:25:21;;;;;;;14.67;8.57;;;;;;;;;;5077799;28;20028;-68
2022/07/11 03:27:46;;;;;;;14.20;8.03;;;;;;;;;;5084809;28;20039;-67
2022/07/11 03:30:14;;;;;;;14.70;7.87;;;;;;;;;;5085020;28;20058;-67
2022/07/11 03:32:39;;;;;;;18.53;7.87;;;;;;;;;;5087226;28;20146;-68
2022/07/11 03:37:49;;;;;;;12.10;6.70;;;;;;;;;;5081960;28;20455;-67
2022/07/11 03:40:14;;;;;;;13.88;7.25;;;;;;;;;;5076982;28;20048;-67
2022/07/11 03:42:40;;;;;;;15.60;7.10;;;;;;;;;;5078533;28;20020;-68
2022/07/11 03:45:05;;;;;;;15.53;6.70;;;;;;;;;;5081941;28;20395;-68
2022/07/11 03:47:30;;;;;;;12.27;6.67;;;;;;;;;;5080733;28;20031;-67
2022/07/11 03:49:56;;;;;;;12.98;6.47;;;;;;;;;;5081484;28;20081;-68
2022/07/11 03:52:21;;;;;;;12.25;6.60;;;;;;;;;;5085958;28;20039;-67
2022/07/11 03:54:46;;;;;;;15.90;6.95;;;;;;;;;;5082511;28;20027;-67
2022/07/11 03:57:11;;;;;;;13.75;6.80;;;;;;;;;;5077686;28;20024;-67
2022/07/11 03:59:37;;;;;;;14.65;6.68;;;;;;;;;;5072556;28;20027;-67
2022/07/11 04:02:02;;;;;;;9.35;6.50;;;;;;;;;;5074385;28;20028;-67
2022/07/11 04:04:27;;;;;;;11.48;6.32;;;;;;;;;;5093686;28;20119;-67
2022/07/11 04:06:52;;;;;;;14.85;6.68;;;;;;;;;;5091051;28;20377;-67
2022/07/11 04:09:17;;;;;;;13.77;6.68;;;;;;;;;;5079055;28;20535;-67
2022/07/11 04:11:43;;;;;;;13.32;6.05;;;;;;;;;;5081450;28;20100;-67
2022/07/11 04:14:08;;;;;;;12.00;5.85;;;;;;;;;;5091516;28;20051;-68
2022/07/11 04:16:34;;;;;;;10.35;5.75;;;;;;;;;;5080816;28;20056;-68
2022/07/11 04:18:59;;;;;;;12.63;5.82;;;;;;;;;;5086123;28;20021;-68
2022/07/11 04:21:24;;;;;;;11.23;5.57;;;;;;;;;;5085892;28;20031;-68
2022/07/11 04:23:49;;;;;;;9.55;5.30;;;;;;;;;;5092963;28;20038;-67
2022/07/11 04:26:14;;;;;;;10.35;5.07;;;;;;;;;;5073694;28;20111;-67
2022/07/11 04:28:40;;;;;;;9.07;5.40;;;;;;;;;;5085695;28;20098;-67
2022/07/11 04:31:05;;;;;;;12.10;6.05;;;;;;;;;;5079230;28;20036;-67
2022/07/11 04:33:30;;;;;;;14.27;5.88;;;;;;;;;;5089473;28;20016;-67
2022/07/11 04:35:56;;;;;;;16.88;5.88;;;;;;;;;;5081597;28;20429;-67
2022/07/11 04:38:21;;;;;;;12.05;6.10;;;;;;;;;;5084425;28;20487;-67
2022/07/11 04:40:47;;;;;;;11.48;6.18;;;;;;;;;;5076991;28;20063;-67
2022/07/11 04:43:12;;;;;;;14.70;6.05;;;;;;;;;;5080668;28;20033;-67
2022/07/11 04:45:37;;;;;;;13.70;6.53;;;;;;;;;;5075674;28;20020;-68
2022/07/11 04:48:02;;;;;;;13.52;6.10;;;;;;;;;;5076600;28;20700;-68
2022/07/11 04:50:28;;;;;;;11.98;6.53;;;;;;;;;;5079393;28;20067;-67
2022/07/11 04:52:53;;;;;;;10.45;6.68;;;;;;;;;;5087570;28;20123;-68
2022/07/11 04:55:19;;;;;;;13.55;6.50;;;;;;;;;;5085627;28;20021;-68
2022/07/11 04:57:44;;;;;;;13.52;6.32;;;;;;;;;;5083700;28;20032;-67
2022/07/11 05:00:09;;;;;;;16.05;7.07;;;;;;;;;;5078500;28;20008;-67
2022/07/11 05:02:35;;;;;;;13.27;7.03;;;;;;;;;;5078453;28;20024;-67
2022/07/11 05:05:00;;;;;;;13.45;7.45;;;;;;;;;;5090461;28;20154;-66
2022/07/11 05:07:25;;;;;;;16.48;7.20;;;;;;;;;;5091448;28;20035;-67
2022/07/11 05:09:50;;;;;;;16.42;6.72;;;;;;;;;;5083546;28;20032;-68
2022/07/11 05:12:16;;;;;;;12.93;6.47;;;;;;;;;;5090883;28;20024;-67
2022/07/11 05:14:41;;;;;;;13.00;6.60;;;;;;;;;;5083407;28;20024;-67
2022/07/11 05:17:07;;;;;;;14.48;6.65;;;;;;;;;;5075620;28;20025;-68
2022/07/11 05:19:32;;;;;;;12.43;7.25;;;;;;;;;;5076714;28;20028;-68
2022/07/11 05:21:57;;;;;;;13.68;8.05;;;;;;;;;;5078186;28;20056;-67
2022/07/11 05:24:22;;;;;;;16.20;8.55;;;;;;;;;;5082633;28;20471;-67
2022/07/11 05:26:48;;;;;;;16.63;9.30;;;;;;;;;;5076491;28;20035;-68
2022/07/11 05:29:13;;;;;;;21.33;8.88;;;;;;;;;;5075368;28;20032;-68
2022/07/11 05:31:39;;;;;;;17.55;8.20;;;;;;;;;;5074431;28;20039;-68
2022/07/11 05:34:04;;;;;;;16.52;8.57;;;;;;;;;;5075137;28;20034;-67
2022/07/11 05:36:30;;;;;;;18.55;8.48;;;;;;;;;;5071397;28;20458;-68
2022/07/11 05:38:55;;;;;;;13.65;7.63;;;;;;;;;;5085837;28;20031;-68
2022/07/11 05:41:20;;;;;;;15.15;7.88;;;;;;;;;;5077485;28;20082;-67
2022/07/11 05:43:45;;;;;;;14.18;7.32;;;;;;;;;;5087241;28;20055;-68
2022/07/11 05:46:11;;;;;;;12.32;7.60;;;;;;;;;;5083683;28;20020;-67
2022/07/11 05:48:36;;;;;;;14.52;8.13;;;;;;;;;;5080807;28;20460;-68
2022/07/11 05:51:02;;;;;;;12.40;7.10;;;;;;;;;;5081092;28;20089;-68
2022/07/11 05:53:27;;;;;;;13.80;6.50;;;;;;;;;;5080144;28;20040;-67
2022/07/11 05:55:52;;;;;;;14.23;6.50;;;;;;;;;;5074396;28;20032;-67
2022/07/11 05:58:17;;;;;;;11.57;5.80;;;;;;;;;;5082249;28;20032;-68
2022/07/11 06:00:43;;;;;;;13.27;5.55;;;;;;;;;;5074884;28;20111;-68
2022/07/11 06:03:08;;;;;;;9.50;4.43;;;;;;;;;;5074689;28;20032;-67
2022/07/11 06:05:33;;;;;;;6.75;3.50;;;;;;;;;;5072824;28;20020;-68
2022/07/11 06:10:42;;;;;;;5.85;3.10;;;;;;;;;;5075254;28;20028;-68
2022/07/11 06:13:07;;;;;;;8.07;3.70;;;;;;;;;;5081296;28;20028;-68
2022/07/11 06:15:32;;;;;;;7.53;3.95;;;;;;;;;;5092031;28;20024;-68
2022/07/11 06:17:58;;;;;;;7.47;3.78;;;;;;;;;;5091551;28;20103;-68
2022/07/11 06:20:23;;;;;;;8.98;4.38;;;;;;;;;;5091960;28;20106;-67
2022/07/11 06:22:48;;;;;;;7.63;3.70;;;;;;;;;;5089770;28;20512;-68
2022/07/11 06:25:13;;;;;;;8.60;4.50;;;;;;;;;;5089670;28;20473;-67
2022/07/11 06:27:39;;;;;;;8.55;4.10;;;;;;;;;;5091666;28;20039;-67
2022/07/11 06:30:04;;;;;;;8.30;4.35;;;;;;;;;;5091580;28;20118;-68
2022/07/11 06:32:31;;;;;;;8.02;3.65;;;;;;;;;;5083521;28;20464;-67
2022/07/11 06:34:56;;;;;;;8.43;3.90;;;;;;;;;;5091595;28;20081;-67
2022/07/11 06:37:21;;;;;;;7.43;3.47;;;;;;;;;;5091198;28;20028;-68
2022/07/11 06:39:46;;;;;;;13.90;3.03;;;;;;;;;;5089319;28;20040;-67
2022/07/11 06:42:12;;;;;;;7.55;3.33;;;;;;;;;;5089048;28;20027;-67
2022/07/11 06:44:37;;;;;;;5.90;2.53;;;;;;;;;;5091553;28;20186;-67
2022/07/11 06:47:02;;;;;;;5.80;2.75;;;;;;;;;;5091026;28;20055;-67
2022/07/11 06:49:27;;;;;;;5.75;2.67;;;;;;;;;;5091320;28;20444;-67
2022/07/11 06:51:53;;;;;;;5.97;2.72;;;;;;;;;;5077665;28;20040;-68
2022/07/11 06:54:18;;;;;;;5.82;2.00;;;;;;;;;;5090389;28;20028;-68
2022/07/11 06:56:43;;;;;;;3.28;1.60;;;;;;;;;;5089421;28;20024;-67
2022/07/11 06:59:08;;;;;;;2.63;1.40;;;;;;;;;;5090941;28;20020;-68
2022/07/11 07:01:33;;;;;;;3.17;1.42;;;;;;;;;;5091499;28;20168;-67
2022/07/11 07:03:59;;;;;;;3.50;1.40;;;;;;;;;;5090982;28;20437;-68
2022/07/11 07:06:24;;;;;;;3.30;1.60;;;;;;;;;;5078937;28;20049;-68
2022/07/11 07:08:49;;;;;;;3.05;1.45;;;;;;;;;;5086079;28;20499;-67
2022/07/11 07:11:14;;;;;;;2.63;1.20;;;;;;;;;;5076414;28;20103;-67
2022/07/11 07:13:40;;;;;;;3.08;1.35;;;;;;;;;;5082597;28;20025;-67
2022/07/11 07:16:06;;;;;;;3.85;1.40;;;;;;;;;;5071257;28;20020;-67
2022/07/11 07:18:32;;;;;;;4.60;1.52;;;;;;;;;;5083956;28;20024;-67
2022/07/11 07:20:57;;;;;;;4.90;1.60;;;;;;;;;;5090924;28;20078;-67
2022/07/11 07:23:22;;;;;;;5.90;1.70;;;;;;;;;;5090197;28;20032;-67
2022/07/11 07:25:47;;;;;;;3.30;1.40;;;;;;;;;;5074666;28;20021;-67
2022/07/11 07:28:13;;;;;;;3.25;1.42;;;;;;;;;;5078645;28;20075;-67
2022/07/11 07:30:38;;;;;;;3.50;1.58;;;;;;;;;;5090261;28;20024;-67
2022/07/11 07:33:03;;;;;;;2.72;1.17;;;;;;;;;;5090908;28;20055;-67
2022/07/11 07:35:28;;;;;;;4.15;1.33;;;;;;;;;;5089884;28;20012;-67
2022/07/11 07:37:54;;;;;;;2.45;1.30;;;;;;;;;;5078389;28;20036;-67
2022/07/11 07:40:19;;;;;;;2.25;1.00;;;;;;;;;;5089107;28;20024;-68
2022/07/11 07:42:44;;;;;;;6.07;1.00;;;;;;;;;;5090848;28;20401;-67
2022/07/11 07:45:10;;;;;;;4.30;1.00;;;;;;;;;;5091038;28;20012;-68
2022/07/11 07:47:36;;;;;;;2.38;1.05;;;;;;;;;;5090100;28;20032;-67
2022/07/11 07:50:01;;;;;;;2.05;1.20;;;;;;;;;;5070577;28;20034;-67
2022/07/11 07:52:26;;;;;;;2.70;1.25;;;;;;;;;;5074149;28;20036;-67
2022/07/11 07:54:52;;;;;;;1.90;1.08;;;;;;;;;;5088701;28;20075;-68
2022/07/11 07:57:17;;;;;;;2.75;1.05;;;;;;;;;;5089920;28;20032;-67
2022/07/11 07:59:42;;;;;;;3.72;1.38;;;;;;;;;;5070399;28;20082;-67
2022/07/11 08:02:07;;;;;;;3.35;1.70;;;;;;;;;;5071746;28;20016;-67
2022/07/11 08:04:33;;;;;;;4.70;1.40;;;;;;;;;;5092908;28;20179;-67
2022/07/11 08:06:59;;;;;;;2.30;1.25;;;;;;;;;;5094109;28;20024;-67
2022/07/11 08:09:25;;;;;;;2.50;1.30;;;;;;;;;;5093047;28;20444;-67
2022/07/11 08:11:50;;;;;;;3.08;1.20;;;;;;;;;;5093531;28;20031;-67
2022/07/11 08:14:16;;;;;;;2.67;1.20;;;;;;;;;;5093889;28;20437;-67
2022/07/11 08:16:41;;;;;;;3.42;1.20;;;;;;;;;;5094172;28;20020;-67
2022/07/11 08:19:06;;;;;;;2.53;1.38;;;;;;;;;;5093069;28;20081;-67
2022/07/11 08:21:33;;;;;;;3.38;1.50;;;;;;;;;;5074001;28;20013;-68
2022/07/11 08:23:58;;;;;;;3.28;1.30;;;;;;;;;;5088421;28;20027;-67
2022/07/11 08:26:24;;;;;;;2.63;1.23;;;;;;;;;;5094360;28;20028;-67
2022/07/11 08:28:51;;;;;;;2.58;1.10;;;;;;;;;;5093602;28;20028;-68
2022/07/11 08:31:16;;;;;;;3.05;1.10;;;;;;;;;;5093803;28;20020;-68
2022/07/11 08:33:41;;;;;;;2.35;1.00;;;;;;;;;;5090236;28;20013;-68
2022/07/11 08:36:07;;;;;;;2.35;0.90;;;;;;;;;;5093613;28;20016;-68
2022/07/11 08:38:32;;;;;;;2.58;0.90;;;;;;;;;;5093187;28;20012;-68
2022/07/11 08:40:57;;;;;;;3.75;1.00;;;;;;;;;;5092412;28;20051;-67
2022/07/11 08:43:28;;;;;;;1.77;0.90;;;;;;;;;;5092647;28;20048;-68
2022/07/11 08:45:54;;;;;;;2.47;1.00;;;;;;;;;;5073607;28;20562;-68
2022/07/11 08:48:20;;;;;;;4.60;0.90;;;;;;;;;;5083129;28;20024;-67
2022/07/11 08:50:46;;;;;;;3.85;0.70;;;;;;;;;;5093567;28;20035;-68
2022/07/11 08:53:12;;;;;;;1.20;0.55;;;;;;;;;;5092884;28;20036;-68
2022/07/11 08:55:38;;;;;;;1.55;0.88;;;;;;;;;;5091286;28;20035;-68
2022/07/11 08:58:03;;;;;;;2.45;0.80;;;;;;;;;;5092913;28;20020;-68
2022/07/11 09:00:28;;;;;;;2.10;1.00;;;;;;;;;;5093378;28;20379;-67
2022/07/11 09:02:54;;;;;;;2.90;0.95;;;;;;;;;;5088231;28;20590;-67
2022/07/11 09:05:19;;;;;;;4.18;1.00;;;;;;;;;;5084550;28;20453;-67
2022/07/11 09:07:46;;;;;;;2.63;0.80;;;;;;;;;;5092766;28;20043;-68
2022/07/11 09:10:12;;;;;;;2.72;1.00;;;;;;;;;;5083845;28;20017;-67
2022/07/11 09:12:39;;;;;;;2.70;0.90;;;;;;;;;;5078135;28;20027;-67
2022/07/11 09:15:05;;;;;;;2.33;0.88;;;;;;;;;;5082931;28;20358;-68
2022/07/11 09:17:30;;;;;;;1.38;0.65;;;;;;;;;;5077024;28;20027;-67
2022/07/11 09:19:55;;;;;;;1.35;0.80;;;;;;;;;;5092928;28;20020;-68
2022/07/11 09:25:24;;;;;;;4.07;1.00;;;;;;;;;;5090887;28;20046;-68
2022/07/11 09:27:56;;;;;;;1.48;0.75;;;;;;;;;;5092794;28;20028;-67
2022/07/11 09:30:21;;;;;;;2.25;0.90;;;;;;;;;;5092993;28;20012;-67
2022/07/11 09:33:00;;;;;;;4.25;0.90;;;;;;;;;;5092321;28;20028;-68
2022/07/11 09:35:30;;;;;;;3.30;0.90;;;;;;;;;;5089704;28;20531;-68
2022/07/11 09:37:56;;;;;;;1.85;0.77;;;;;;;;;;5092612;28;20026;-67
2022/07/11 09:40:22;;;;;;;1.88;0.70;;;;;;;;;;5090465;28;20439;-67
2022/07/11 09:42:47;;;;;;;2.58;0.98;;;;;;;;;;5091919;28;20024;-67
2022/07/11 09:45:13;;;;;;;1.27;0.63;;;;;;;;;;5092425;28;20020;-68
2022/07/11 09:47:48;;;;;;;0.77;0.50;;;;;;;;;;5085524;28;20024;-67
2022/07/11 09:50:17;;;;;;;1.38;0.60;;;;;;;;;;5092522;28;20445;-68
2022/07/11 09:52:43;;;;;;;2.00;0.60;;;;;;;;;;5092291;28;20038;-67
2022/07/11 09:55:09;;;;;;;3.05;0.63;;;;;;;;;;5090589;28;20020;-68
2022/07/11 09:57:35;;;;;;;2.33;0.77;;;;;;;;;;5091816;28;20488;-68
2022/07/11 10:00:03;;;;;;;2.65;0.75;;;;;;;;;;5092249;28;20020;-68
2022/07/11 10:02:28;;;;;;;3.22;1.00;;;;;;;;;;5091795;28;20089;-68
2022/07/11 10:04:54;;;;;;;1.00;0.70;;;;;;;;;;5088719;28;20028;-68
2022/07/11 10:07:19;;;;;;;3.13;0.80;;;;;;;;;;5074160;28;20032;-67
2022/07/11 10:09:44;;;;;;;1.25;0.60;;;;;;;;;;5091448;28;20066;-68
2022/07/11 10:12:10;;;;;;;0.60;0.40;;;;;;;;;;5074198;28;20111;-67
2022/07/11 10:14:38;;;;;;;1.80;0.68;;;;;;;;;;5091979;28;20103;-67
2022/07/11 10:17:21;;;;;;;2.00;0.70;;;;;;;;;;5080738;28;20024;-67
2022/07/11 10:19:53;;;;;;;1.88;0.60;;;;;;;;;;5091716;28;20020;-67
2022/07/11 10:22:22;;;;;;;1.80;0.70;;;;;;;;;;5091465;28;20028;-67
2022/07/11 10:24:56;;;;;;;4.25;2.05;;;;;;;;;;5091757;28;20524;-67
2022/07/11 10:27:22;;;;;;;2.95;0.77;;;;;;;;;;5075824;28;20528;-68
2022/07/11 10:29:53;;;;;;;1.95;0.80;;;;;;;;;;5091781;28;20154;-67
2022/07/11 10:32:21;;;;;;;;;;;;;;;;;;5091452;28;20032;-68
2022/07/11 10:35:05;;;;;;;1.45;0.80;;;;;;;;;;5091503;28;19911;-67
2022/07/11 10:37:44;;;;;;;2.50;1.02;;;;;;;;;;5091185;28;20398;-68
2022/07/11 10:40:09;;;;;;;2.85;1.00;;;;;;;;;;5091294;28;20380;-68
2022/07/11 10:42:39;;;;;;;2.03;0.80;;;;;;;;;;5088192;28;20035;-68
2022/07/11 10:45:09;;;;;;;2.13;0.95;;;;;;;;;;5091672;28;20485;-67
2022/07/11 10:47:38;;;;;;;3.95;1.08;;;;;;;;;;5081523;28;20032;-67
2022/07/11 10:50:10;;;;;;;5.10;1.42;;;;;;;;;;5091442;28;20050;-67
2022/07/11 10:52:36;;;;;;;2.60;1.17;;;;;;;;;;5090679;28;20024;-67
2022/07/11 10:55:16;;;;;;;2.75;1.30;;;;;;;;;;5091693;28;20472;-67
2022/07/11 10:57:49;;;;;;;2.45;1.08;;;;;;;;;;5085857;28;20031;-67
2022/07/11 11:00:19;;;;;;;3.75;1.10;;;;;;;;;;5091362;28;20020;-67
2022/07/11 11:03:01;;;;;;;2.63;1.00;;;;;;;;;;5077676;28;20500;-67
2022/07/11 11:05:44;;;;;;;4.53;0.90;;;;;;;;;;5091484;28;20020;-67
2022/07/11 11:08:28;;;;;;;2.03;0.90;;;;;;;;;;5091169;28;20543;-68
2022/07/11 11:10:53;;;;;;;3.05;1.10;;;;;;;;;;5089599;28;20035;-68
2022/07/11 11:13:20;;;;;;;2.00;0.80;;;;;;;;;;5081665;28;20016;-68
2022/07/11 11:15:54;;;;;;;4.18;1.20;;;;;;;;;;5091225;28;20101;-68
2022/07/11 11:18:25;;;;;;;3.95;1.13;;;;;;;;;;5083661;28;20154;-68
2022/07/11 11:20:59;;;;;;;5.15;1.88;;;;;;;;;;5091356;28;20016;-68
2022/07/11 11:23:25;;;;;;;2.53;1.15;;;;;;;;;;5090607;28;20111;-68
2022/07/11 11:25:51;;;;;;;4.32;1.60;;;;;;;;;;5090482;28;20080;-67
2022/07/11 11:28:20;;;;;;;5.82;1.30;;;;;;;;;;5089723;28;20028;-68
2022/07/11 11:30:52;;;;;;;3.97;1.60;;;;;;;;;;5087784;28;20066;-68
2022/07/11 11:33:18;;;;;;;2.88;1.42;;;;;;;;;;5090704;28;20051;-68
2022/07/11 11:35:43;;;;;;;2.95;1.42;;;;;;;;;;5091139;28;20196;-68
2022/07/11 11:38:09;;;;;;;6.10;2.10;;;;;;;;;;5076714;28;20092;-68
2022/07/11 11:40:34;;;;;;;4.28;1.90;;;;;;;;;;5074709;28;20080;-68
2022/07/11 11:42:59;;;;;;;5.47;1.67;;;;;;;;;;5089520;28;20144;-68
2022/07/11 11:45:24;;;;;;;4.28;1.63;;;;;;;;;;5094889;28;20476;-68
2022/07/11 11:47:50;;;;;;;3.70;1.50;;;;;;;;;;5094044;28;20025;-68
2022/07/11 11:50:16;;;;;;;3.97;1.67;;;;;;;;;;5074517;28;20442;-67
2022/07/11 11:52:41;;;;;;;2.40;1.40;;;;;;;;;;5080048;28;20036;-68
2022/07/11 11:55:07;;;;;;;3.15;1.20;;;;;;;;;;5094904;28;20024;-67
2022/07/11 11:57:32;;;;;;;4.30;1.20;;;;;;;;;;5092255;28;20497;-68
2022/07/11 11:59:57;;;;;;;3.10;1.17;;;;;;;;;;5088870;28;20024;-68
2022/07/11 12:02:23;;;;;;;2.70;1.20;;;;;;;;;;5077482;28;20051;-68
2022/07/11 12:04:48;;;;;;;2.72;1.60;;;;;;;;;;5094329;28;20073;-67
2022/07/11 12:07:20;;;;;;;2.65;1.20;;;;;;;;;;5094259;28;20028;-67
2022/07/11 12:09:50;;;;;;;4.45;1.40;;;;;;;;;;5092559;28;20164;-68
2022/07/11 12:15:06;;;;;;;3.78;1.42;;;;;;;;;;5094515;28;20392;-68
2022/07/11 12:17:32;;;;;;;2.95;1.40;;;;;;;;;;5093809;28;20044;-67
2022/07/11 12:19:57;;;;;;;2.47;1.30;;;;;;;;;;5091160;28;20055;-68
2022/07/11 12:22:22;;;;;;;5.53;1.50;;;;;;;;;;5076790;28;20028;-68
2022/07/11 12:24:51;;;;;;;2.03;1.30;;;;;;;;;;5093924;28;20110;-68
2022/07/11 12:27:17;;;;;;;2.65;1.40;;;;;;;;;;5091648;28;20071;-68
2022/07/11 12:29:47;;;;;;;1.63;1.00;;;;;;;;;;5094281;28;20548;-68
2022/07/11 12:32:13;;;;;;;1.83;1.00;;;;;;;;;;5091883;28;20042;-68
2022/07/11 12:34:38;;;;;;;3.03;0.80;;;;;;;;;;5094123;28;20024;-68
2022/07/11 12:37:03;;;;;;;1.75;0.82;;;;;;;;;;5093606;28;20472;-68
2022/07/11 12:39:29;;;;;;;2.10;1.10;;;;;;;;;;5093920;28;20064;-68
2022/07/11 12:41:55;;;;;;;1.98;1.00;;;;;;;;;;5093117;28;20028;-68
2022/07/11 12:47:07;;;;;;;1.20;0.73;;;;;;;;;;5092958;28;20387;-68
2022/07/11 12:49:33;;;;;;;3.28;1.00;;;;;;;;;;5093370;28;20020;-68
2022/07/11 12:52:00;;;;;;;1.83;0.80;;;;;;;;;;5093246;28;20028;-68
2022/07/11 12:54:29;;;;;;;2.60;0.90;;;;;;;;;;5091925;28;20024;-68
2022/07/11 12:56:57;;;;;;;3.05;0.90;;;;;;;;;;5077921;28;20032;-68
2022/07/11 12:59:22;;;;;;;1.83;0.88;;;;;;;;;;5088891;28;20039;-68
2022/07/11 13:01:54;;;;;;;2.15;1.00;;;;;;;;;;5093526;28;20078;-68
2022/07/11 13:04:28;;;;;;;1.45;0.75;;;;;;;;;;5092076;28;20101;-68
2022/07/11 13:09:38;;;;;;;1.88;0.80;;;;;;;;;;5072903;28;20511;-67
2022/07/11 13:12:03;;;;;;;2.72;1.13;;;;;;;;;;5073248;28;20029;-68
2022/07/11 13:17:12;;;;;;;1.75;0.90;;;;;;;;;;5074391;28;20019;-68
2022/07/11 13:19:37;;;;;;;2.58;1.00;;;;;;;;;;5092932;28;20107;-68
2022/07/11 13:22:02;;;;;;;2.58;1.00;;;;;;;;;;5092669;28;20107;-68
2022/07/11 13:24:28;;;;;;;2.05;1.27;;;;;;;;;;5075468;28;20056;-68
2022/07/11 13:26:53;;;;;;;1.05;0.80;;;;;;;;;;5072551;28;20033;-68
2022/07/11 13:29:18;;;;;;;2.45;1.10;;;;;;;;;;5078229;28;20031;-68
2022/07/11 13:31:43;;;;;;;1.92;1.00;;;;;;;;;;5087643;28;20036;-68
2022/07/11 13:34:09;;;;;;;3.38;1.42;;;;;;;;;;5092581;28;20085;-68
2022/07/11 13:36:34;;;;;;;9.25;1.42;;;;;;;;;;5092600;28;20028;-67
2022/07/11 13:38:59;;;;;;;4.68;1.02;;;;;;;;;;5092364;28;20761;-67
2022/07/11 13:41:24;;;;;;;2.13;0.75;;;;;;;;;;5083056;28;20358;-67
2022/07/11 13:43:50;;;;;;;3.53;0.80;;;;;;;;;;5085672;28;20468;-67
2022/07/11 13:46:15;;;;;;;2.13;0.90;;;;;;;;;;5092446;28;20039;-67
2022/07/11 13:48:41;;;;;;;2.88;0.80;;;;;;;;;;5092252;28;20020;-68
2022/07/11 13:51:07;;;;;;;2.13;0.80;;;;;;;;;;5092495;28;20036;-67
2022/07/11 13:53:32;;;;;;;2.90;0.73;;;;;;;;;;5083527;28;20369;-67
2022/07/11 13:55:57;;;;;;;1.80;0.93;;;;;;;;;;5072070;28;20055;-68
2022/07/11 13:58:26;;;;;;;2.40;0.70;;;;;;;;;;5079462;28;20047;-67
2022/07/11 14:00:52;;;;;;;1.73;0.70;;;;;;;;;;5071760;28;20099;-67
2022/07/11 14:03:17;;;;;;;3.47;0.73;;;;;;;;;;5082222;28;20027;-67
2022/07/11 14:05:43;;;;;;;1.88;0.70;;;;;;;;;;5083277;28;20028;-68
2022/07/11 14:08:08;;;;;;;1.73;0.63;;;;;;;;;;5081315;28;20036;-68
2022/07/11 14:10:33;;;;;;;1.88;0.70;;;;;;;;;;5092072;28;20024;-68
2022/07/11 14:12:59;;;;;;;2.97;0.65;;;;;;;;;;5091540;28;20384;-68
2022/07/11 14:15:25;;;;;;;2.13;0.80;;;;;;;;;;5072588;28;20021;-67
2022/07/11 14:17:50;;;;;;;1.67;0.80;;;;;;;;;;5078787;28;20024;-68
2022/07/11 14:20:15;;;;;;;2.22;0.70;;;;;;;;;;5092054;28;20017;-68
2022/07/11 14:22:41;;;;;;;1.95;0.63;;;;;;;;;;5091630;28;20020;-68
2022/07/11 14:25:07;;;;;;;1.70;0.65;;;;;;;;;;5082788;28;20028;-68
2022/07/11 14:27:35;;;;;;;1.05;0.50;;;;;;;;;;5076114;28;20472;-68
2022/07/11 14:30:01;;;;;;;1.15;0.50;;;;;;;;;;5077895;28;20170;-68
2022/07/11 14:32:26;;;;;;;1.35;0.52;;;;;;;;;;5075077;28;20457;-68
2022/07/11 14:34:51;;;;;;;2.00;0.50;;;;;;;;;;5085241;28;20088;-68
2022/07/11 14:37:17;;;;;;;2.80;0.45;;;;;;;;;;5073836;28;20715;-68
2022/07/11 14:39:42;;;;;;;2.15;0.88;;;;;;;;;;5090961;28;20020;-67
2022/07/11 14:42:07;;;;;;;2.03;0.70;;;;;;;;;;5090907;28;20117;-68
2022/07/11 14:44:33;;;;;;;2.10;0.60;;;;;;;;;;5083424;28;20098;-68
2022/07/11 14:46:58;;;;;;;1.60;0.50;;;;;;;;;;5071172;28;20472;-68
2022/07/11 14:49:23;;;;;;;3.15;0.77;;;;;;;;;;5091061;28;20028;-68
2022/07/11 14:51:49;;;;;;;0.80;0.40;;;;;;;;;;5088105;28;20131;-67